Northwest Missouri Rgnl Information

FAA: EVU - ICAO: KEVU

Northwest Missouri Rgnl (Airport) Location

State Missouri
County Nodaway
City Maryville
Northwest Missouri Rgnl (Airport) is 2 miles west of Maryville, MO.
Latitude 40-21-11.8484N
Longitude 094-54-59.8875W
Elevation 1,145ft

Northwest Missouri Rgnl METARs

METAR KEVU 190855Z AUTO 16005KT 10SM CLR 18/16 A2970 RMK AO2 T01850160
Altimeter 29.70"
Temperature 18.5°C (65.3°F)
Wind 160° at 5KT
Clouds Skies are clear.
Visibility 10.0mi
Time observed: 2022-05-19T08:55:00Z

Northwest Missouri Rgnl (Airport) Details

Status Operational
Activation November 1945
Ownership Public
Usage Public
Chart OMAHA
ATC on-site No
Beacon schedule sunset-sunrise
Beacon color clear green

Northwest Missouri Rgnl (Airport) Contacts

Owner CITY OF MARYVILLE
Owner address 415 N MARKET BOX 438, MARYVILLE, MO 64468
Owner phone 660-562-8001
Manager DAVID KRAHN
Manager address 22 WOODFIELD LN, GREENFIELD, MO 65661
Manager phone (253) 820-4967

Northwest Missouri Rgnl Radio Frequencies

Northwest Missouri Rgnl (Airport) Radio Frequencies

UNICOM 122.8
Common traffic advisory frequency (CTAF) 122.8